sensor_id;sensor_type;location;lat;lon;timestamp;pressure;altitude;pressure_sealevel;temperature;humidity
15750;BME280;7976;52.526;13.326;2023-06-24T00:01:37;101737.28;;;17.88;100.00
15750;BME280;7976;52.526;13.326;2023-06-24T00:04:05;101738.09;;;17.89;100.00
15750;BME280;7976;52.526;13.326;2023-06-24T00:06:31;101746.06;;;17.89;100.00
15750;BME280;7976;52.526;13.326;2023-06-24T00:09:00;101745.13;;;17.90;100.00
15750;BME280;7976;52.526;13.326;2023-06-24T00:11:28;101754.88;;;17.89;100.00
15750;BME280;7976;52.526;13.326;2023-06-24T00:13:55;101757.50;;;17.89;100.00
15750;BME280;7976;52.526;13.326;2023-06-24T00:16:22;101757.59;;;17.88;100.00
15750;BME280;7976;52.526;13.326;2023-06-24T00:18:54;101747.00;;;17.88;100.00
15750;BME280;7976;52.526;13.326;2023-06-24T00:21:24;101753.16;;;17.88;100.00
15750;BME280;7976;52.526;13.326;2023-06-24T00:23:56;101759.28;;;17.89;100.00
15750;BME280;7976;52.526;13.326;2023-06-24T00:26:25;101763.75;;;17.88;100.00
15750;BME280;7976;52.526;13.326;2023-06-24T00:28:51;101759.38;;;17.87;100.00
15750;BME280;7976;52.526;13.326;2023-06-24T00:31:19;101761.16;;;17.87;100.00
15750;BME280;7976;52.526;13.326;2023-06-24T00:33:47;101768.34;;;17.85;100.00
15750;BME280;7976;52.526;13.326;2023-06-24T00:36:16;101764.91;;;17.83;100.00
15750;BME280;7976;52.526;13.326;2023-06-24T00:38:42;101779.94;;;17.82;100.00
15750;BME280;7976;52.526;13.326;2023-06-24T00:41:10;101784.53;;;17.79;100.00
15750;BME280;7976;52.526;13.326;2023-06-24T00:43:38;101781.19;;;17.75;100.00
15750;BME280;7976;52.526;13.326;2023-06-24T00:46:05;101778.59;;;17.74;100.00
15750;BME280;7976;52.526;13.326;2023-06-24T00:48:33;101772.53;;;17.72;100.00
15750;BME280;7976;52.526;13.326;2023-06-24T00:51:00;101785.00;;;17.70;100.00
15750;BME280;7976;52.526;13.326;2023-06-24T00:53:27;101783.34;;;17.67;100.00
15750;BME280;7976;52.526;13.326;2023-06-24T00:55:55;101775.50;;;17.66;100.00
15750;BME280;7976;52.526;13.326;2023-06-24T00:58:28;101777.34;;;17.64;100.00
15750;BME280;7976;52.526;13.326;2023-06-24T01:00:58;101769.56;;;17.61;100.00
15750;BME280;7976;52.526;13.326;2023-06-24T01:03:26;101779.28;;;17.60;100.00
15750;BME280;7976;52.526;13.326;2023-06-24T01:05:54;101786.47;;;17.58;100.00
15750;BME280;7976;52.526;13.326;2023-06-24T01:08:21;101785.69;;;17.56;100.00
15750;BME280;7976;52.526;13.326;2023-06-24T01:10:50;101781.31;;;17.55;100.00
15750;BME280;7976;52.526;13.326;2023-06-24T01:13:18;101779.53;;;17.56;100.00
15750;BME280;7976;52.526;13.326;2023-06-24T01:15:45;101776.16;;;17.52;100.00
15750;BME280;7976;52.526;13.326;2023-06-24T01:18:24;101770.16;;;17.48;100.00
15750;BME280;7976;52.526;13.326;2023-06-24T01:21:03;101775.63;;;17.45;100.00
15750;BME280;7976;52.526;13.326;2023-06-24T01:23:55;101768.59;;;17.44;100.00
15750;BME280;7976;52.526;13.326;2023-06-24T01:27:19;101773.84;;;17.46;100.00
15750;BME280;7976;52.526;13.326;2023-06-24T01:30:29;101769.38;;;17.46;100.00
15750;BME280;7976;52.526;13.326;2023-06-24T01:33:10;101771.22;;;17.44;100.00
15750;BME280;7976;52.526;13.326;2023-06-24T01:35:41;101766.00;;;17.43;100.00
15750;BME280;7976;52.526;13.326;2023-06-24T01:38:31;101770.44;;;17.42;100.00
15750;BME280;7976;52.526;13.326;2023-06-24T01:41:04;101767.09;;;17.39;100.00
15750;BME280;7976;52.526;13.326;2023-06-24T01:43:34;101770.69;;;17.38;100.00
15750;BME280;7976;52.526;13.326;2023-06-24T01:46:04;101768.94;;;17.37;100.00
15750;BME280;7976;52.526;13.326;2023-06-24T01:48:36;101765.59;;;17.33;100.00
15750;BME280;7976;52.526;13.326;2023-06-24T01:51:10;101768.31;;;17.32;100.00
15750;BME280;7976;52.526;13.326;2023-06-24T01:53:42;101767.59;;;17.28;100.00
15750;BME280;7976;52.526;13.326;2023-06-24T01:56:14;101765.03;;;17.27;100.00
15750;BME280;7976;52.526;13.326;2023-06-24T01:58:45;101769.53;;;17.25;100.00
15750;BME280;7976;52.526;13.326;2023-06-24T02:01:14;101768.06;;;17.19;100.00
15750;BME280;7976;52.526;13.326;2023-06-24T02:03:44;101766.31;;;17.18;100.00
15750;BME280;7976;52.526;13.326;2023-06-24T02:06:12;101764.69;;;17.16;100.00
15750;BME280;7976;52.526;13.326;2023-06-24T02:08:42;101760.47;;;17.12;100.00
15750;BME280;7976;52.526;13.326;2023-06-24T02:11:12;101771.19;;;17.09;100.00
15750;BME280;7976;52.526;13.326;2023-06-24T02:13:42;101769.53;;;17.06;100.00
15750;BME280;7976;52.526;13.326;2023-06-24T02:16:16;101771.44;;;17.04;100.00
15750;BME280;7976;52.526;13.326;2023-06-24T02:18:45;101769.69;;;17.03;100.00
15750;BME280;7976;52.526;13.326;2023-06-24T02:21:16;101759.19;;;17.02;100.00
15750;BME280;7976;52.526;13.326;2023-06-24T02:23:46;101756.63;;;17.00;100.00
15750;BME280;7976;52.526;13.326;2023-06-24T02:26:13;101754.91;;;16.99;100.00
15750;BME280;7976;52.526;13.326;2023-06-24T02:28:41;101748.84;;;16.97;100.00
15750;BME280;7976;52.526;13.326;2023-06-24T02:31:12;101750.63;;;16.97;100.00
15750;BME280;7976;52.526;13.326;2023-06-24T02:33:39;101754.34;;;16.93;100.00
15750;BME280;7976;52.526;13.326;2023-06-24T02:36:08;101760.63;;;16.90;100.00
15750;BME280;7976;52.526;13.326;2023-06-24T02:38:35;101751.06;;;16.88;100.00
15750;BME280;7976;52.526;13.326;2023-06-24T02:41:03;101762.63;;;16.85;100.00
15750;BME280;7976;52.526;13.326;2023-06-24T02:43:30;101768.06;;;16.82;100.00
15750;BME280;7976;52.526;13.326;2023-06-24T02:45:59;101776.91;;;16.81;100.00
15750;BME280;7976;52.526;13.326;2023-06-24T02:48:29;101770.94;;;16.78;100.00
15750;BME280;7976;52.526;13.326;2023-06-24T02:50:58;101778.25;;;16.71;100.00
15750;BME280;7976;52.526;13.326;2023-06-24T02:53:27;101773.13;;;16.68;100.00
15750;BME280;7976;52.526;13.326;2023-06-24T02:55:56;101780.25;;;16.66;100.00
15750;BME280;7976;52.526;13.326;2023-06-24T02:58:24;101786.47;;;16.65;100.00
15750;BME280;7976;52.526;13.326;2023-06-24T03:01:01;101786.56;;;16.64;100.00
15750;BME280;7976;52.526;13.326;2023-06-24T03:03:35;101787.41;;;16.64;100.00
15750;BME280;7976;52.526;13.326;2023-06-24T03:06:05;101787.41;;;16.64;100.00
15750;BME280;7976;52.526;13.326;2023-06-24T03:08:37;101790.97;;;16.63;100.00
15750;BME280;7976;52.526;13.326;2023-06-24T03:11:05;101794.69;;;16.59;100.00
15750;BME280;7976;52.526;13.326;2023-06-24T03:13:33;101789.66;;;16.53;100.00
15750;BME280;7976;52.526;13.326;2023-06-24T03:16:13;101803.91;;;16.51;100.00
15750;BME280;7976;52.526;13.326;2023-06-24T03:18:48;101797.88;;;16.47;100.00
15750;BME280;7976;52.526;13.326;2023-06-24T03:21:19;101804.06;;;16.46;100.00
15750;BME280;7976;52.526;13.326;2023-06-24T03:23:47;101810.25;;;16.45;100.00
15750;BME280;7976;52.526;13.326;2023-06-24T03:26:15;101808.53;;;16.46;100.00
15750;BME280;7976;52.526;13.326;2023-06-24T03:28:43;101808.44;;;16.47;100.00
15750;BME280;7976;52.526;13.326;2023-06-24T03:31:14;101813.75;;;16.47;100.00
15750;BME280;7976;52.526;13.326;2023-06-24T03:33:42;101815.56;;;16.45;100.00
15750;BME280;7976;52.526;13.326;2023-06-24T03:36:11;101819.03;;;16.47;100.00
15750;BME280;7976;52.526;13.326;2023-06-24T03:38:38;101814.53;;;16.49;100.00
15750;BME280;7976;52.526;13.326;2023-06-24T03:41:07;101819.03;;;16.47;100.00
15750;BME280;7976;52.526;13.326;2023-06-24T03:43:34;101822.56;;;16.46;100.00
15750;BME280;7976;52.526;13.326;2023-06-24T03:46:01;101818.25;;;16.44;100.00
15750;BME280;7976;52.526;13.326;2023-06-24T03:48:28;101826.19;;;16.44;100.00
15750;BME280;7976;52.526;13.326;2023-06-24T03:50:56;101820.84;;;16.45;100.00
15750;BME280;7976;52.526;13.326;2023-06-24T03:53:23;101819.13;;;16.44;100.00
15750;BME280;7976;52.526;13.326;2023-06-24T03:55:50;101815.69;;;16.42;100.00
15750;BME280;7976;52.526;13.326;2023-06-24T03:58:18;101822.81;;;16.40;100.00
15750;BME280;7976;52.526;13.326;2023-06-24T04:00:46;101821.19;;;16.38;100.00
15750;BME280;7976;52.526;13.326;2023-06-24T04:03:15;101827.66;;;16.30;100.00
15750;BME280;7976;52.526;13.326;2023-06-24T04:05:43;101839.19;;;16.28;100.00
15750;BME280;7976;52.526;13.326;2023-06-24T04:08:10;101839.19;;;16.28;100.00
15750;BME280;7976;52.526;13.326;2023-06-24T04:10:38;101841.78;;;16.29;100.00
15750;BME280;7976;52.526;13.326;2023-06-24T04:13:04;101833.78;;;16.31;100.00
15750;BME280;7976;52.526;13.326;2023-06-24T04:15:34;101831.09;;;16.33;100.00
15750;BME280;7976;52.526;13.326;2023-06-24T04:18:01;101832.06;;;16.30;100.00
15750;BME280;7976;52.526;13.326;2023-06-24T04:20:28;101829.34;;;16.31;100.00
15750;BME280;7976;52.526;13.326;2023-06-24T04:22:55;101839.06;;;16.31;100.00
15750;BME280;7976;52.526;13.326;2023-06-24T04:25:21;101843.56;;;16.29;100.00
15750;BME280;7976;52.526;13.326;2023-06-24T04:27:48;101847.94;;;16.30;100.00
15750;BME280;7976;52.526;13.326;2023-06-24T04:30:15;101836.41;;;16.31;100.00
15750;BME280;7976;52.526;13.326;2023-06-24T04:32:43;101847.78;;;16.33;100.00
15750;BME280;7976;52.526;13.326;2023-06-24T04:35:10;101857.31;;;16.37;100.00
15750;BME280;7976;52.526;13.326;2023-06-24T04:37:37;101853.56;;;16.43;100.00
15750;BME280;7976;52.526;13.326;2023-06-24T04:40:06;101852.56;;;16.45;100.00
15750;BME280;7976;52.526;13.326;2023-06-24T04:42:33;101848.03;;;16.49;100.00
15750;BME280;7976;52.526;13.326;2023-06-24T04:45:00;101838.31;;;16.49;100.00
15750;BME280;7976;52.526;13.326;2023-06-24T04:47:30;101850.59;;;16.50;100.00
15750;BME280;7976;52.526;13.326;2023-06-24T04:49:58;101854.94;;;16.51;100.00
15750;BME280;7976;52.526;13.326;2023-06-24T04:52:25;101848.91;;;16.49;100.00
15750;BME280;7976;52.526;13.326;2023-06-24T04:54:52;101855.88;;;16.50;100.00
15750;BME280;7976;52.526;13.326;2023-06-24T04:57:27;101857.34;;;16.57;100.00
15750;BME280;7976;52.526;13.326;2023-06-24T04:59:54;101860.88;;;16.56;100.00
15750;BME280;7976;52.526;13.326;2023-06-24T05:02:21;101874.31;;;16.52;100.00
15750;BME280;7976;52.526;13.326;2023-06-24T05:04:49;101874.47;;;16.49;100.00
15750;BME280;7976;52.526;13.326;2023-06-24T05:07:17;101870.75;;;16.53;100.00
15750;BME280;7976;52.526;13.326;2023-06-24T05:09:46;101876.63;;;16.59;100.00
15750;BME280;7976;52.526;13.326;2023-06-24T05:12:13;101877.31;;;16.64;100.00
15750;BME280;7976;52.526;13.326;2023-06-24T05:14:40;101875.50;;;16.65;100.00
15750;BME280;7976;52.526;13.326;2023-06-24T05:17:07;101873.50;;;16.70;100.00
15750;BME280;7976;52.526;13.326;2023-06-24T05:19:33;101867.97;;;16.76;100.00
15750;BME280;7976;52.526;13.326;2023-06-24T05:22:00;101878.25;;;16.82;100.00
15750;BME280;7976;52.526;13.326;2023-06-24T05:24:28;101875.41;;;16.86;100.00
15750;BME280;7976;52.526;13.326;2023-06-24T05:26:55;101873.22;;;16.96;100.00
15750;BME280;7976;52.526;13.326;2023-06-24T05:29:22;101885.28;;;17.01;100.00
15750;BME280;7976;52.526;13.326;2023-06-24T05:31:49;101884.44;;;17.01;100.00
15750;BME280;7976;52.526;13.326;2023-06-24T05:34:15;101883.59;;;17.00;100.00
15750;BME280;7976;52.526;13.326;2023-06-24T05:36:42;101886.31;;;16.99;100.00
15750;BME280;7976;52.526;13.326;2023-06-24T05:39:09;101887.09;;;17.01;100.00
15750;BME280;7976;52.526;13.326;2023-06-24T05:41:38;101890.47;;;17.04;100.00
15750;BME280;7976;52.526;13.326;2023-06-24T05:44:08;101887.94;;;17.01;99.92
15750;BME280;7976;52.526;13.326;2023-06-24T05:46:36;101885.28;;;17.01;99.65
15750;BME280;7976;52.526;13.326;2023-06-24T05:49:03;101893.94;;;17.05;99.55
15750;BME280;7976;52.526;13.326;2023-06-24T05:51:30;101900.75;;;17.10;99.20
15750;BME280;7976;52.526;13.326;2023-06-24T05:53:56;101903.47;;;17.09;98.86
15750;BME280;7976;52.526;13.326;2023-06-24T05:56:24;101890.47;;;17.04;98.97
15750;BME280;7976;52.526;13.326;2023-06-24T05:58:52;101900.31;;;17.01;99.07
15750;BME280;7976;52.526;13.326;2023-06-24T06:01:19;101903.88;;;17.00;99.19
15750;BME280;7976;52.526;13.326;2023-06-24T06:03:46;101894.16;;;17.00;99.13
15750;BME280;7976;52.526;13.326;2023-06-24T06:06:13;101897.53;;;17.04;98.76
15750;BME280;7976;52.526;13.326;2023-06-24T06:08:40;101899.88;;;17.10;98.84
15750;BME280;7976;52.526;13.326;2023-06-24T06:11:07;101897.63;;;17.21;98.69
15750;BME280;7976;52.526;13.326;2023-06-24T06:13:34;101890.41;;;17.24;98.36
15750;BME280;7976;52.526;13.326;2023-06-24T06:16:02;101883.19;;;17.28;98.07
15750;BME280;7976;52.526;13.326;2023-06-24T06:18:29;101884.59;;;17.35;98.50
15750;BME280;7976;52.526;13.326;2023-06-24T06:20:55;101876.41;;;17.41;98.04
15750;BME280;7976;52.526;13.326;2023-06-24T06:23:22;101885.00;;;17.46;97.24
15750;BME280;7976;52.526;13.326;2023-06-24T06:25:50;101890.09;;;17.50;97.11
15750;BME280;7976;52.526;13.326;2023-06-24T06:28:17;101891.50;;;17.58;96.75
15750;BME280;7976;52.526;13.326;2023-06-24T06:30:44;101894.00;;;17.61;96.71
15750;BME280;7976;52.526;13.326;2023-06-24T06:33:12;101903.06;;;17.74;96.31
15750;BME280;7976;52.526;13.326;2023-06-24T06:35:39;101908.09;;;17.80;96.30
15750;BME280;7976;52.526;13.326;2023-06-24T06:38:06;101906.09;;;17.85;96.32
15750;BME280;7976;52.526;13.326;2023-06-24T06:40:33;101901.50;;;17.88;96.21
15750;BME280;7976;52.526;13.326;2023-06-24T06:43:01;101902.19;;;17.92;96.09
15750;BME280;7976;52.526;13.326;2023-06-24T06:45:27;101898.63;;;17.93;96.33
15750;BME280;7976;52.526;13.326;2023-06-24T06:47:54;101902.06;;;17.95;96.51
15750;BME280;7976;52.526;13.326;2023-06-24T06:50:22;101893.16;;;17.96;96.16
15750;BME280;7976;52.526;13.326;2023-06-24T06:52:49;101891.16;;;18.01;96.11
15750;BME280;7976;52.526;13.326;2023-06-24T06:55:16;101883.69;;;18.09;95.42
15750;BME280;7976;52.526;13.326;2023-06-24T06:57:43;101882.28;;;18.19;95.48
15750;BME280;7976;52.526;13.326;2023-06-24T07:00:11;101889.00;;;18.26;95.09
15750;BME280;7976;52.526;13.326;2023-06-24T07:02:38;101880.75;;;18.32;94.84
15750;BME280;7976;52.526;13.326;2023-06-24T07:05:05;101887.38;;;18.40;94.50
15750;BME280;7976;52.526;13.326;2023-06-24T07:07:33;101895.75;;;18.50;94.04
15750;BME280;7976;52.526;13.326;2023-06-24T07:10:00;101879.69;;;18.53;93.64
15750;BME280;7976;52.526;13.326;2023-06-24T07:12:27;101890.03;;;18.57;93.13
15750;BME280;7976;52.526;13.326;2023-06-24T07:14:54;101891.84;;;18.57;92.35
15750;BME280;7976;52.526;13.326;2023-06-24T07:17:21;101888.78;;;18.64;91.76
15750;BME280;7976;52.526;13.326;2023-06-24T07:19:47;101887.28;;;18.76;91.28
15750;BME280;7976;52.526;13.326;2023-06-24T07:22:14;101893.66;;;18.89;90.54
15750;BME280;7976;52.526;13.326;2023-06-24T07:24:45;101900.06;;;19.02;90.45
15750;BME280;7976;52.526;13.326;2023-06-24T07:27:12;101897.75;;;19.12;90.39
15750;BME280;7976;52.526;13.326;2023-06-24T07:29:39;101908.97;;;19.17;90.33
15750;BME280;7976;52.526;13.326;2023-06-24T07:32:10;101906.25;;;19.18;90.25
15750;BME280;7976;52.526;13.326;2023-06-24T07:34:38;101907.09;;;19.19;89.99
15750;BME280;7976;52.526;13.326;2023-06-24T07:37:05;101907.47;;;19.28;88.99
15750;BME280;7976;52.526;13.326;2023-06-24T07:39:32;101912.06;;;19.25;88.03
15750;BME280;7976;52.526;13.326;2023-06-24T07:42:00;101913.44;;;19.16;88.18
15750;BME280;7976;52.526;13.326;2023-06-24T07:44:27;101909.69;;;19.20;87.74
15750;BME280;7976;52.526;13.326;2023-06-24T07:46:53;101904.66;;;19.31;87.21
15750;BME280;7976;52.526;13.326;2023-06-24T07:49:20;101903.91;;;19.45;86.59
15750;BME280;7976;52.526;13.326;2023-06-24T07:51:47;101913.59;;;19.46;86.65
15750;BME280;7976;52.526;13.326;2023-06-24T07:54:14;101917.28;;;19.43;86.27
15750;BME280;7976;52.526;13.326;2023-06-24T07:56:41;101915.41;;;19.45;86.31
15750;BME280;7976;52.526;13.326;2023-06-24T07:59:10;101919.50;;;19.51;85.63
15750;BME280;7976;52.526;13.326;2023-06-24T08:01:36;101916.59;;;19.55;84.79
15750;BME280;7976;52.526;13.326;2023-06-24T08:04:04;101920.88;;;19.58;84.27
15750;BME280;7976;52.526;13.326;2023-06-24T08:06:31;101914.38;;;19.63;84.18
15750;BME280;7976;52.526;13.326;2023-06-24T08:09:00;101912.22;;;19.70;82.67
15750;BME280;7976;52.526;13.326;2023-06-24T08:11:27;101913.34;;;19.81;82.66
15750;BME280;7976;52.526;13.326;2023-06-24T08:13:54;101908.38;;;19.75;82.05
15750;BME280;7976;52.526;13.326;2023-06-24T08:16:22;101909.56;;;19.70;82.14
15750;BME280;7976;52.526;13.326;2023-06-24T08:18:49;101910.34;;;19.72;82.28
15750;BME280;7976;52.526;13.326;2023-06-24T08:21:16;101913.69;;;19.75;82.62
15750;BME280;7976;52.526;13.326;2023-06-24T08:23:43;101919.78;;;19.77;82.29
15750;BME280;7976;52.526;13.326;2023-06-24T08:26:09;101924.16;;;19.78;82.52
15750;BME280;7976;52.526;13.326;2023-06-24T08:28:37;101927.22;;;19.86;83.04
15750;BME280;7976;52.526;13.326;2023-06-24T08:31:03;101928.22;;;19.99;81.96
15750;BME280;7976;52.526;13.326;2023-06-24T08:33:32;101924.84;;;19.98;82.24
15750;BME280;7976;52.526;13.326;2023-06-24T08:35:59;101922.41;;;19.93;82.02
15750;BME280;7976;52.526;13.326;2023-06-24T08:38:26;101929.09;;;20.00;81.22
15750;BME280;7976;52.526;13.326;2023-06-24T08:40:53;101928.84;;;20.05;80.01
15750;BME280;7976;52.526;13.326;2023-06-24T08:43:20;101920.00;;;20.20;79.26
15750;BME280;7976;52.526;13.326;2023-06-24T08:45:47;101928.16;;;20.32;78.73
15750;BME280;7976;52.526;13.326;2023-06-24T08:48:14;101935.63;;;20.26;78.86
15750;BME280;7976;52.526;13.326;2023-06-24T08:50:50;101926.28;;;20.19;78.67
15750;BME280;7976;52.526;13.326;2023-06-24T08:53:20;101929.53;;;20.24;78.32
15750;BME280;7976;52.526;13.326;2023-06-24T08:55:53;101930.72;;;20.34;77.92
15750;BME280;7976;52.526;13.326;2023-06-24T08:58:21;101926.28;;;20.48;77.39
15750;BME280;7976;52.526;13.326;2023-06-24T09:00:48;101930.88;;;20.60;77.19
15750;BME280;7976;52.526;13.326;2023-06-24T09:03:15;101938.97;;;20.59;76.26
15750;BME280;7976;52.526;13.326;2023-06-24T09:05:43;101935.34;;;20.60;75.34
15750;BME280;7976;52.526;13.326;2023-06-24T09:08:10;101937.16;;;20.59;74.83
15750;BME280;7976;52.526;13.326;2023-06-24T09:10:38;101935.44;;;20.58;74.55
15750;BME280;7976;52.526;13.326;2023-06-24T09:13:06;101945.16;;;20.59;73.82
15750;BME280;7976;52.526;13.326;2023-06-24T09:15:34;101941.19;;;20.66;73.35
15750;BME280;7976;52.526;13.326;2023-06-24T09:18:02;101944.16;;;20.76;73.03
15750;BME280;7976;52.526;13.326;2023-06-24T09:20:31;101930.53;;;20.80;72.40
15750;BME280;7976;52.526;13.326;2023-06-24T09:23:02;101934.06;;;20.81;72.22
15750;BME280;7976;52.526;13.326;2023-06-24T09:25:31;101930.09;;;20.88;72.74
15750;BME280;7976;52.526;13.326;2023-06-24T09:27:59;101931.28;;;20.98;71.60
15750;BME280;7976;52.526;13.326;2023-06-24T09:30:27;101937.66;;;21.09;71.19
15750;BME280;7976;52.526;13.326;2023-06-24T09:32:55;101932.81;;;21.16;70.75
15750;BME280;7976;52.526;13.326;2023-06-24T09:35:24;101923.66;;;21.20;70.20
15750;BME280;7976;52.526;13.326;2023-06-24T09:37:53;101918.84;;;21.27;69.82
15750;BME280;7976;52.526;13.326;2023-06-24T09:40:22;101914.91;;;21.32;68.24
15750;BME280;7976;52.526;13.326;2023-06-24T09:42:52;101915.47;;;21.37;67.95
15750;BME280;7976;52.526;13.326;2023-06-24T09:45:24;101919.47;;;21.44;67.20
15750;BME280;7976;52.526;13.326;2023-06-24T09:47:51;101922.59;;;21.51;67.87
15750;BME280;7976;52.526;13.326;2023-06-24T09:50:18;101924.69;;;21.60;68.45
15750;BME280;7976;52.526;13.326;2023-06-24T09:52:46;101926.19;;;21.64;67.40
15750;BME280;7976;52.526;13.326;2023-06-24T09:55:16;101931.81;;;21.73;67.21
15750;BME280;7976;52.526;13.326;2023-06-24T09:57:50;101925.50;;;21.74;66.29
15750;BME280;7976;52.526;13.326;2023-06-24T10:00:19;101931.03;;;21.71;65.78
15750;BME280;7976;52.526;13.326;2023-06-24T10:02:48;101916.00;;;21.70;66.00
15750;BME280;7976;52.526;13.326;2023-06-24T10:05:15;101909.53;;;21.74;66.16
15750;BME280;7976;52.526;13.326;2023-06-24T10:07:43;101904.66;;;21.81;65.63
15750;BME280;7976;52.526;13.326;2023-06-24T10:10:11;101902.34;;;21.89;65.61
15750;BME280;7976;52.526;13.326;2023-06-24T10:12:40;101907.19;;;21.96;65.64
15750;BME280;7976;52.526;13.326;2023-06-24T10:15:09;101899.34;;;22.07;65.96
15750;BME280;7976;52.526;13.326;2023-06-24T10:17:37;101897.00;;;22.15;65.78
15750;BME280;7976;52.526;13.326;2023-06-24T10:20:05;101902.06;;;22.20;65.25
15750;BME280;7976;52.526;13.326;2023-06-24T10:22:33;101884.44;;;22.17;63.88
15750;BME280;7976;52.526;13.326;2023-06-24T10:25:05;101898.09;;;22.25;64.07
15750;BME280;7976;52.526;13.326;2023-06-24T10:27:39;101900.16;;;22.34;64.00
15750;BME280;7976;52.526;13.326;2023-06-24T10:30:17;101901.78;;;22.37;63.24
15750;BME280;7976;52.526;13.326;2023-06-24T10:32:51;101897.94;;;22.41;63.38
15750;BME280;7976;52.526;13.326;2023-06-24T10:35:24;101900.28;;;22.46;63.22
15750;BME280;7976;52.526;13.326;2023-06-24T10:37:56;101893.78;;;22.50;62.84
15750;BME280;7976;52.526;13.326;2023-06-24T10:40:37;101882.72;;;22.56;63.35
15750;BME280;7976;52.526;13.326;2023-06-24T10:43:27;101881.13;;;22.66;63.16
15750;BME280;7976;52.526;13.326;2023-06-24T10:45:58;101878.28;;;22.69;63.40
15750;BME280;7976;52.526;13.326;2023-06-24T10:48:25;101882.41;;;22.73;62.66
15750;BME280;7976;52.526;13.326;2023-06-24T10:50:52;101884.31;;;22.71;61.21
15750;BME280;7976;52.526;13.326;2023-06-24T10:53:19;101878.66;;;22.63;60.43
15750;BME280;7976;52.526;13.326;2023-06-24T10:55:48;101866.19;;;22.63;61.24
15750;BME280;7976;52.526;13.326;2023-06-24T10:58:15;101871.94;;;22.70;61.10
15750;BME280;7976;52.526;13.326;2023-06-24T11:00:43;101879.44;;;22.77;61.50
15750;BME280;7976;52.526;13.326;2023-06-24T11:03:14;101879.66;;;22.87;61.62
15750;BME280;7976;52.526;13.326;2023-06-24T11:05:43;101871.63;;;22.87;60.30
15750;BME280;7976;52.526;13.326;2023-06-24T11:08:11;101876.00;;;22.88;60.22
15750;BME280;7976;52.526;13.326;2023-06-24T11:10:47;101875.78;;;22.91;60.26
15750;BME280;7976;52.526;13.326;2023-06-24T11:13:15;101868.94;;;22.99;60.50
15750;BME280;7976;52.526;13.326;2023-06-24T11:15:41;101861.16;;;23.09;60.68
15750;BME280;7976;52.526;13.326;2023-06-24T11:18:10;101873.19;;;23.14;60.08
15750;BME280;7976;52.526;13.326;2023-06-24T11:20:39;101875.56;;;23.19;60.01
15750;BME280;7976;52.526;13.326;2023-06-24T11:23:07;101873.31;;;23.25;60.35
15750;BME280;7976;52.526;13.326;2023-06-24T11:25:40;101879.22;;;23.30;59.80
15750;BME280;7976;52.526;13.326;2023-06-24T11:28:16;101875.78;;;23.28;60.20
15750;BME280;7976;52.526;13.326;2023-06-24T11:30:43;101868.81;;;23.26;59.75
15750;BME280;7976;52.526;13.326;2023-06-24T11:33:10;101866.78;;;23.29;59.30
15750;BME280;7976;52.526;13.326;2023-06-24T11:35:38;101868.28;;;23.33;59.00
15750;BME280;7976;52.526;13.326;2023-06-24T11:38:05;101857.38;;;23.36;58.71
15750;BME280;7976;52.526;13.326;2023-06-24T11:40:33;101865.28;;;23.38;58.40
15750;BME280;7976;52.526;13.326;2023-06-24T11:43:01;101859.00;;;23.39;58.48
15750;BME280;7976;52.526;13.326;2023-06-24T11:45:28;101857.91;;;23.41;58.38
15750;BME280;7976;52.526;13.326;2023-06-24T11:48:02;101854.91;;;23.46;58.17
15750;BME280;7976;52.526;13.326;2023-06-24T11:50:31;101861.09;;;23.46;58.00
15750;BME280;7976;52.526;13.326;2023-06-24T11:52:59;101865.50;;;23.47;57.87
15750;BME280;7976;52.526;13.326;2023-06-24T11:55:27;101863.66;;;23.48;57.08
15750;BME280;7976;52.526;13.326;2023-06-24T11:57:56;101858.41;;;23.46;55.95
15750;BME280;7976;52.526;13.326;2023-06-24T12:00:26;101850.16;;;23.49;55.81
15750;BME280;7976;52.526;13.326;2023-06-24T12:02:55;101852.28;;;23.57;55.86
15750;BME280;7976;52.526;13.326;2023-06-24T12:05:27;101854.50;;;23.63;55.39
15750;BME280;7976;52.526;13.326;2023-06-24T12:07:58;101848.72;;;23.69;56.36
15750;BME280;7976;52.526;13.326;2023-06-24T12:10:26;101852.03;;;23.73;56.33
15750;BME280;7976;52.526;13.326;2023-06-24T12:12:55;101849.88;;;23.78;56.38
15750;BME280;7976;52.526;13.326;2023-06-24T12:15:22;101849.03;;;23.88;56.12
15750;BME280;7976;52.526;13.326;2023-06-24T12:17:49;101843.00;;;23.97;56.64
15750;BME280;7976;52.526;13.326;2023-06-24T12:20:16;101845.03;;;24.06;56.11
15750;BME280;7976;52.526;13.326;2023-06-24T12:22:44;101845.31;;;24.14;55.96
15750;BME280;7976;52.526;13.326;2023-06-24T12:25:12;101849.56;;;24.17;55.79
15750;BME280;7976;52.526;13.326;2023-06-24T12:27:39;101847.13;;;24.14;55.59
15750;BME280;7976;52.526;13.326;2023-06-24T12:30:08;101840.19;;;24.11;55.58
15750;BME280;7976;52.526;13.326;2023-06-24T12:32:36;101846.25;;;24.13;55.34
15750;BME280;7976;52.526;13.326;2023-06-24T12:35:04;101837.53;;;24.22;55.71
15750;BME280;7976;52.526;13.326;2023-06-24T12:37:32;101835.88;;;24.32;55.76
15750;BME280;7976;52.526;13.326;2023-06-24T12:40:00;101837.22;;;24.38;55.44
15750;BME280;7976;52.526;13.326;2023-06-24T12:42:28;101837.94;;;24.40;54.75
15750;BME280;7976;52.526;13.326;2023-06-24T12:44:55;101841.47;;;24.40;55.04
15750;BME280;7976;52.526;13.326;2023-06-24T12:47:22;101829.06;;;24.39;55.01
15750;BME280;7976;52.526;13.326;2023-06-24T12:49:49;101838.06;;;24.38;55.02
15750;BME280;7976;52.526;13.326;2023-06-24T12:52:16;101835.25;;;24.40;54.97
15750;BME280;7976;52.526;13.326;2023-06-24T12:54:43;101833.09;;;24.45;54.56